sensor_id;sensor_type;location;lat;lon;timestamp;temperature;humidity
19799;DHT22;10059;59.850;10.454;2023-02-28T00:01:07;1.20;99.90
19799;DHT22;10059;59.850;10.454;2023-02-28T00:03:35;1.10;99.90
19799;DHT22;10059;59.850;10.454;2023-02-28T00:06:03;0.90;99.90
19799;DHT22;10059;59.850;10.454;2023-02-28T00:08:30;1.00;99.90
19799;DHT22;10059;59.850;10.454;2023-02-28T00:11:01;0.90;99.90
19799;DHT22;10059;59.850;10.454;2023-02-28T00:13:27;0.80;99.90
19799;DHT22;10059;59.850;10.454;2023-02-28T00:16:01;0.70;99.90
19799;DHT22;10059;59.850;10.454;2023-02-28T00:18:28;0.70;99.90
19799;DHT22;10059;59.850;10.454;2023-02-28T00:20:56;0.60;99.90
19799;DHT22;10059;59.850;10.454;2023-02-28T00:23:23;0.80;99.90
19799;DHT22;10059;59.850;10.454;2023-02-28T00:25:50;0.80;99.90
19799;DHT22;10059;59.850;10.454;2023-02-28T00:28:17;0.70;99.90
19799;DHT22;10059;59.850;10.454;2023-02-28T00:30:44;0.40;99.90
19799;DHT22;10059;59.850;10.454;2023-02-28T00:33:11;0.20;99.90
19799;DHT22;10059;59.850;10.454;2023-02-28T00:35:38;0.30;99.90
19799;DHT22;10059;59.850;10.454;2023-02-28T00:38:06;0.30;99.90
19799;DHT22;10059;59.850;10.454;2023-02-28T00:40:33;0.40;99.90
19799;DHT22;10059;59.850;10.454;2023-02-28T00:43:00;0.40;99.90
19799;DHT22;10059;59.850;10.454;2023-02-28T00:45:27;0.70;99.90
19799;DHT22;10059;59.850;10.454;2023-02-28T00:47:54;0.60;99.90
19799;DHT22;10059;59.850;10.454;2023-02-28T00:50:20;0.40;99.90
19799;DHT22;10059;59.850;10.454;2023-02-28T00:52:47;0.40;99.90
19799;DHT22;10059;59.850;10.454;2023-02-28T00:55:16;0.70;99.90
19799;DHT22;10059;59.850;10.454;2023-02-28T00:57:44;1.10;99.90
19799;DHT22;10059;59.850;10.454;2023-02-28T01:00:11;1.30;99.90
19799;DHT22;10059;59.850;10.454;2023-02-28T01:02:38;1.50;99.90
19799;DHT22;10059;59.850;10.454;2023-02-28T01:05:06;1.70;99.90
19799;DHT22;10059;59.850;10.454;2023-02-28T01:07:33;1.50;99.90
19799;DHT22;10059;59.850;10.454;2023-02-28T01:09:59;1.60;99.90
19799;DHT22;10059;59.850;10.454;2023-02-28T01:12:28;1.80;99.90
19799;DHT22;10059;59.850;10.454;2023-02-28T01:14:54;2.10;99.90
19799;DHT22;10059;59.850;10.454;2023-02-28T01:17:21;2.40;99.90
19799;DHT22;10059;59.850;10.454;2023-02-28T01:19:48;2.70;99.90
19799;DHT22;10059;59.850;10.454;2023-02-28T01:22:15;2.90;99.90
19799;DHT22;10059;59.850;10.454;2023-02-28T01:24:42;3.10;99.90
19799;DHT22;10059;59.850;10.454;2023-02-28T01:27:08;3.40;99.90
19799;DHT22;10059;59.850;10.454;2023-02-28T01:29:37;3.50;99.90
19799;DHT22;10059;59.850;10.454;2023-02-28T01:32:04;3.30;99.90
19799;DHT22;10059;59.850;10.454;2023-02-28T01:34:31;2.90;99.90
19799;DHT22;10059;59.850;10.454;2023-02-28T01:36:57;2.70;99.90
19799;DHT22;10059;59.850;10.454;2023-02-28T01:39:25;2.50;99.90
19799;DHT22;10059;59.850;10.454;2023-02-28T01:41:52;2.10;99.90
19799;DHT22;10059;59.850;10.454;2023-02-28T01:44:59;1.80;99.90
19799;DHT22;10059;59.850;10.454;2023-02-28T01:47:29;1.50;99.90
19799;DHT22;10059;59.850;10.454;2023-02-28T01:49:58;1.30;99.90
19799;DHT22;10059;59.850;10.454;2023-02-28T01:52:27;1.20;99.90
19799;DHT22;10059;59.850;10.454;2023-02-28T01:54:56;1.20;99.90
19799;DHT22;10059;59.850;10.454;2023-02-28T01:57:29;1.30;99.90
19799;DHT22;10059;59.850;10.454;2023-02-28T02:00:03;1.30;99.90
19799;DHT22;10059;59.850;10.454;2023-02-28T02:02:32;1.40;99.90
19799;DHT22;10059;59.850;10.454;2023-02-28T02:05:05;1.30;99.90
19799;DHT22;10059;59.850;10.454;2023-02-28T02:07:36;1.20;99.90
19799;DHT22;10059;59.850;10.454;2023-02-28T02:10:06;1.30;99.90
19799;DHT22;10059;59.850;10.454;2023-02-28T02:12:48;1.20;99.90
19799;DHT22;10059;59.850;10.454;2023-02-28T02:15:22;1.10;99.90
19799;DHT22;10059;59.850;10.454;2023-02-28T02:17:52;1.10;99.90
19799;DHT22;10059;59.850;10.454;2023-02-28T02:23:47;1.00;99.90
19799;DHT22;10059;59.850;10.454;2023-02-28T02:26:53;1.20;99.90
19799;DHT22;10059;59.850;10.454;2023-02-28T02:29:54;1.20;99.90
19799;DHT22;10059;59.850;10.454;2023-02-28T02:32:48;1.30;99.90
19799;DHT22;10059;59.850;10.454;2023-02-28T02:35:24;1.20;99.90
19799;DHT22;10059;59.850;10.454;2023-02-28T02:37:57;1.10;99.90
19799;DHT22;10059;59.850;10.454;2023-02-28T02:40:31;1.10;99.90
19799;DHT22;10059;59.850;10.454;2023-02-28T02:43:02;1.00;99.90
19799;DHT22;10059;59.850;10.454;2023-02-28T02:45:33;1.10;99.90
19799;DHT22;10059;59.850;10.454;2023-02-28T02:48:03;1.10;99.90
19799;DHT22;10059;59.850;10.454;2023-02-28T02:50:36;1.20;99.90
19799;DHT22;10059;59.850;10.454;2023-02-28T02:53:04;1.10;99.90
19799;DHT22;10059;59.850;10.454;2023-02-28T02:55:34;1.00;99.90
19799;DHT22;10059;59.850;10.454;2023-02-28T02:58:04;0.80;99.90
19799;DHT22;10059;59.850;10.454;2023-02-28T03:00:34;0.80;99.90
19799;DHT22;10059;59.850;10.454;2023-02-28T03:03:03;0.80;99.90
19799;DHT22;10059;59.850;10.454;2023-02-28T03:05:35;0.70;99.90
19799;DHT22;10059;59.850;10.454;2023-02-28T03:08:06;0.60;99.90
19799;DHT22;10059;59.850;10.454;2023-02-28T03:10:36;0.40;99.90
19799;DHT22;10059;59.850;10.454;2023-02-28T03:13:21;0.30;99.90
19799;DHT22;10059;59.850;10.454;2023-02-28T03:16:01;0.40;99.90
19799;DHT22;10059;59.850;10.454;2023-02-28T03:18:42;0.40;99.90
19799;DHT22;10059;59.850;10.454;2023-02-28T03:21:18;0.20;99.90
19799;DHT22;10059;59.850;10.454;2023-02-28T03:23:56;0.00;99.90
19799;DHT22;10059;59.850;10.454;2023-02-28T03:26:27;-0.10;99.90
19799;DHT22;10059;59.850;10.454;2023-02-28T03:29:02;-0.10;99.90
19799;DHT22;10059;59.850;10.454;2023-02-28T03:31:32;-0.20;99.90
19799;DHT22;10059;59.850;10.454;2023-02-28T03:34:02;-0.30;99.90
19799;DHT22;10059;59.850;10.454;2023-02-28T03:36:36;-0.20;99.90
19799;DHT22;10059;59.850;10.454;2023-02-28T03:39:11;-0.30;99.90
19799;DHT22;10059;59.850;10.454;2023-02-28T03:41:42;-0.40;99.90
19799;DHT22;10059;59.850;10.454;2023-02-28T03:44:14;-0.40;99.90
19799;DHT22;10059;59.850;10.454;2023-02-28T03:46:46;-0.20;99.90
19799;DHT22;10059;59.850;10.454;2023-02-28T03:49:18;0.00;99.90
19799;DHT22;10059;59.850;10.454;2023-02-28T03:51:47;0.00;99.90
19799;DHT22;10059;59.850;10.454;2023-02-28T03:54:19;-0.10;99.90
19799;DHT22;10059;59.850;10.454;2023-02-28T03:56:51;-0.40;99.90
19799;DHT22;10059;59.850;10.454;2023-02-28T03:59:23;-0.60;99.90
19799;DHT22;10059;59.850;10.454;2023-02-28T04:01:52;-0.60;99.90
19799;DHT22;10059;59.850;10.454;2023-02-28T04:04:21;-0.60;99.90
19799;DHT22;10059;59.850;10.454;2023-02-28T04:06:51;-0.60;99.90
19799;DHT22;10059;59.850;10.454;2023-02-28T04:09:19;-0.50;99.90
19799;DHT22;10059;59.850;10.454;2023-02-28T04:11:49;-0.20;99.90
19799;DHT22;10059;59.850;10.454;2023-02-28T04:14:18;0.00;99.90
19799;DHT22;10059;59.850;10.454;2023-02-28T04:16:45;0.10;99.90
19799;DHT22;10059;59.850;10.454;2023-02-28T04:19:13;0.00;99.90
19799;DHT22;10059;59.850;10.454;2023-02-28T04:21:42;0.10;99.90
19799;DHT22;10059;59.850;10.454;2023-02-28T04:24:13;0.20;99.90
19799;DHT22;10059;59.850;10.454;2023-02-28T04:26:41;0.30;99.90
19799;DHT22;10059;59.850;10.454;2023-02-28T04:29:09;0.40;99.90
19799;DHT22;10059;59.850;10.454;2023-02-28T04:31:37;0.50;99.90
19799;DHT22;10059;59.850;10.454;2023-02-28T04:34:04;0.80;99.90
19799;DHT22;10059;59.850;10.454;2023-02-28T04:36:31;1.20;99.90
19799;DHT22;10059;59.850;10.454;2023-02-28T04:38:58;1.40;99.90
19799;DHT22;10059;59.850;10.454;2023-02-28T04:41:26;1.10;99.90
19799;DHT22;10059;59.850;10.454;2023-02-28T04:43:53;1.00;99.90
19799;DHT22;10059;59.850;10.454;2023-02-28T04:46:22;0.90;99.90
19799;DHT22;10059;59.850;10.454;2023-02-28T04:48:49;0.90;99.90
19799;DHT22;10059;59.850;10.454;2023-02-28T04:51:17;0.80;99.90
19799;DHT22;10059;59.850;10.454;2023-02-28T04:53:45;0.70;99.90
19799;DHT22;10059;59.850;10.454;2023-02-28T04:56:13;0.60;99.90
19799;DHT22;10059;59.850;10.454;2023-02-28T04:58:42;0.60;99.90
19799;DHT22;10059;59.850;10.454;2023-02-28T05:01:19;0.50;99.90
19799;DHT22;10059;59.850;10.454;2023-02-28T05:03:46;0.40;99.90
19799;DHT22;10059;59.850;10.454;2023-02-28T05:06:14;0.30;99.90
19799;DHT22;10059;59.850;10.454;2023-02-28T05:08:41;0.20;99.90
19799;DHT22;10059;59.850;10.454;2023-02-28T05:11:17;0.00;99.90
19799;DHT22;10059;59.850;10.454;2023-02-28T05:13:45;0.20;99.90
19799;DHT22;10059;59.850;10.454;2023-02-28T05:16:13;0.20;99.90
19799;DHT22;10059;59.850;10.454;2023-02-28T05:18:40;0.20;99.90
19799;DHT22;10059;59.850;10.454;2023-02-28T05:21:26;0.00;99.90
19799;DHT22;10059;59.850;10.454;2023-02-28T05:23:54;-0.20;99.90
19799;DHT22;10059;59.850;10.454;2023-02-28T05:26:22;-0.30;99.90
19799;DHT22;10059;59.850;10.454;2023-02-28T05:28:50;-0.40;99.90
19799;DHT22;10059;59.850;10.454;2023-02-28T05:31:17;-0.40;99.90
19799;DHT22;10059;59.850;10.454;2023-02-28T05:33:44;-0.50;99.90
19799;DHT22;10059;59.850;10.454;2023-02-28T05:36:11;-0.50;99.90
19799;DHT22;10059;59.850;10.454;2023-02-28T05:38:37;-0.40;99.90
19799;DHT22;10059;59.850;10.454;2023-02-28T05:41:06;-0.60;99.90
19799;DHT22;10059;59.850;10.454;2023-02-28T05:43:33;-0.70;99.90
19799;DHT22;10059;59.850;10.454;2023-02-28T05:46:04;-0.70;99.90
19799;DHT22;10059;59.850;10.454;2023-02-28T05:48:32;-0.80;99.90
19799;DHT22;10059;59.850;10.454;2023-02-28T05:50:59;-0.80;99.90
19799;DHT22;10059;59.850;10.454;2023-02-28T05:53:26;-0.70;99.90
19799;DHT22;10059;59.850;10.454;2023-02-28T05:55:52;-0.70;99.90
19799;DHT22;10059;59.850;10.454;2023-02-28T05:58:20;-0.80;99.90
19799;DHT22;10059;59.850;10.454;2023-02-28T06:00:47;-1.00;99.90
19799;DHT22;10059;59.850;10.454;2023-02-28T06:03:15;-1.00;99.90
19799;DHT22;10059;59.850;10.454;2023-02-28T06:05:42;-1.00;99.90
19799;DHT22;10059;59.850;10.454;2023-02-28T06:08:08;-1.20;99.90
19799;DHT22;10059;59.850;10.454;2023-02-28T06:10:36;-1.10;99.90
19799;DHT22;10059;59.850;10.454;2023-02-28T06:13:03;-1.10;99.90
19799;DHT22;10059;59.850;10.454;2023-02-28T06:15:30;-1.00;99.90
19799;DHT22;10059;59.850;10.454;2023-02-28T06:17:58;-1.10;99.90
19799;DHT22;10059;59.850;10.454;2023-02-28T06:20:27;-1.10;99.90
19799;DHT22;10059;59.850;10.454;2023-02-28T06:22:55;-1.00;99.90
19799;DHT22;10059;59.850;10.454;2023-02-28T06:25:24;-1.10;99.90
19799;DHT22;10059;59.850;10.454;2023-02-28T06:27:51;-1.10;99.90
19799;DHT22;10059;59.850;10.454;2023-02-28T06:30:18;-1.30;99.90
19799;DHT22;10059;59.850;10.454;2023-02-28T06:32:49;-1.10;99.90
19799;DHT22;10059;59.850;10.454;2023-02-28T06:35:16;-1.00;99.90
19799;DHT22;10059;59.850;10.454;2023-02-28T06:37:44;-0.90;99.90
19799;DHT22;10059;59.850;10.454;2023-02-28T06:40:13;-0.60;99.90
19799;DHT22;10059;59.850;10.454;2023-02-28T06:42:40;-0.20;99.90
19799;DHT22;10059;59.850;10.454;2023-02-28T06:45:07;0.10;99.90
19799;DHT22;10059;59.850;10.454;2023-02-28T06:47:36;0.00;99.90
19799;DHT22;10059;59.850;10.454;2023-02-28T06:50:03;0.10;99.90
19799;DHT22;10059;59.850;10.454;2023-02-28T06:52:31;0.10;99.90
19799;DHT22;10059;59.850;10.454;2023-02-28T06:54:59;0.40;99.90
19799;DHT22;10059;59.850;10.454;2023-02-28T06:57:27;0.80;99.90
19799;DHT22;10059;59.850;10.454;2023-02-28T06:59:56;1.10;99.90
19799;DHT22;10059;59.850;10.454;2023-02-28T07:02:23;1.40;99.90
19799;DHT22;10059;59.850;10.454;2023-02-28T07:04:50;1.40;99.90
19799;DHT22;10059;59.850;10.454;2023-02-28T07:07:17;1.90;99.90
19799;DHT22;10059;59.850;10.454;2023-02-28T07:09:44;2.10;99.90
19799;DHT22;10059;59.850;10.454;2023-02-28T07:12:12;2.50;99.90
19799;DHT22;10059;59.850;10.454;2023-02-28T07:14:39;3.30;99.90
19799;DHT22;10059;59.850;10.454;2023-02-28T07:17:07;3.30;99.90
19799;DHT22;10059;59.850;10.454;2023-02-28T07:19:34;4.00;99.90
19799;DHT22;10059;59.850;10.454;2023-02-28T07:22:00;4.50;99.90
19799;DHT22;10059;59.850;10.454;2023-02-28T07:24:28;5.30;99.90
19799;DHT22;10059;59.850;10.454;2023-02-28T07:26:55;4.70;99.90
19799;DHT22;10059;59.850;10.454;2023-02-28T07:29:23;4.00;99.90
19799;DHT22;10059;59.850;10.454;2023-02-28T07:31:50;3.60;99.90
19799;DHT22;10059;59.850;10.454;2023-02-28T07:34:18;4.10;99.90
19799;DHT22;10059;59.850;10.454;2023-02-28T07:36:45;4.80;99.90
19799;DHT22;10059;59.850;10.454;2023-02-28T07:39:12;4.50;99.90
19799;DHT22;10059;59.850;10.454;2023-02-28T07:41:39;4.20;99.90
19799;DHT22;10059;59.850;10.454;2023-02-28T07:44:09;4.30;99.90
19799;DHT22;10059;59.850;10.454;2023-02-28T07:46:37;4.70;99.90
19799;DHT22;10059;59.850;10.454;2023-02-28T07:49:04;5.40;99.90
19799;DHT22;10059;59.850;10.454;2023-02-28T07:51:31;5.70;99.90
19799;DHT22;10059;59.850;10.454;2023-02-28T07:53:58;5.80;99.90
19799;DHT22;10059;59.850;10.454;2023-02-28T07:56:25;6.70;99.90
19799;DHT22;10059;59.850;10.454;2023-02-28T07:58:52;7.10;99.90
19799;DHT22;10059;59.850;10.454;2023-02-28T08:01:19;7.70;99.90
19799;DHT22;10059;59.850;10.454;2023-02-28T08:03:47;8.00;99.90
19799;DHT22;10059;59.850;10.454;2023-02-28T08:06:19;8.50;99.90
19799;DHT22;10059;59.850;10.454;2023-02-28T08:08:46;8.40;99.90
19799;DHT22;10059;59.850;10.454;2023-02-28T08:11:13;8.50;99.90
19799;DHT22;10059;59.850;10.454;2023-02-28T08:13:39;8.30;99.90
19799;DHT22;10059;59.850;10.454;2023-02-28T08:16:07;8.40;99.90
19799;DHT22;10059;59.850;10.454;2023-02-28T08:18:34;7.90;99.90
19799;DHT22;10059;59.850;10.454;2023-02-28T08:21:07;7.80;99.90
19799;DHT22;10059;59.850;10.454;2023-02-28T08:23:34;9.30;99.90
19799;DHT22;10059;59.850;10.454;2023-02-28T08:26:01;9.50;99.90
19799;DHT22;10059;59.850;10.454;2023-02-28T08:28:28;8.70;99.90
19799;DHT22;10059;59.850;10.454;2023-02-28T08:30:55;8.80;99.90
19799;DHT22;10059;59.850;10.454;2023-02-28T08:33:22;9.30;99.90
19799;DHT22;10059;59.850;10.454;2023-02-28T08:35:52;9.60;99.90
19799;DHT22;10059;59.850;10.454;2023-02-28T08:38:21;9.00;99.90
19799;DHT22;10059;59.850;10.454;2023-02-28T08:40:49;9.50;99.90
19799;DHT22;10059;59.850;10.454;2023-02-28T08:43:16;9.10;99.90
19799;DHT22;10059;59.850;10.454;2023-02-28T08:45:43;10.10;99.90
19799;DHT22;10059;59.850;10.454;2023-02-28T08:48:09;10.70;99.90
19799;DHT22;10059;59.850;10.454;2023-02-28T08:50:36;9.90;99.90
19799;DHT22;10059;59.850;10.454;2023-02-28T08:53:03;8.00;99.90
19799;DHT22;10059;59.850;10.454;2023-02-28T08:55:31;8.60;99.90
19799;DHT22;10059;59.850;10.454;2023-02-28T08:57:58;8.50;99.90
19799;DHT22;10059;59.850;10.454;2023-02-28T09:00:26;8.90;99.90
19799;DHT22;10059;59.850;10.454;2023-02-28T09:02:53;10.00;99.90
19799;DHT22;10059;59.850;10.454;2023-02-28T09:05:20;10.00;99.90
19799;DHT22;10059;59.850;10.454;2023-02-28T09:07:47;11.10;99.90
19799;DHT22;10059;59.850;10.454;2023-02-28T09:10:13;12.50;99.90
19799;DHT22;10059;59.850;10.454;2023-02-28T09:12:42;14.30;97.60
19799;DHT22;10059;59.850;10.454;2023-02-28T09:15:11;14.40;95.40
19799;DHT22;10059;59.850;10.454;2023-02-28T09:17:38;14.30;92.40
19799;DHT22;10059;59.850;10.454;2023-02-28T09:20:06;13.40;92.00
19799;DHT22;10059;59.850;10.454;2023-02-28T09:22:33;12.40;94.40
19799;DHT22;10059;59.850;10.454;2023-02-28T09:25:00;12.20;93.80
19799;DHT22;10059;59.850;10.454;2023-02-28T09:27:26;11.80;95.10
19799;DHT22;10059;59.850;10.454;2023-02-28T09:29:55;12.00;95.90
19799;DHT22;10059;59.850;10.454;2023-02-28T09:32:21;13.20;95.30
19799;DHT22;10059;59.850;10.454;2023-02-28T09:34:48;14.00;91.90
19799;DHT22;10059;59.850;10.454;2023-02-28T09:37:15;14.90;90.50
19799;DHT22;10059;59.850;10.454;2023-02-28T09:39:42;15.20;89.20
19799;DHT22;10059;59.850;10.454;2023-02-28T09:42:19;15.10;89.60
19799;DHT22;10059;59.850;10.454;2023-02-28T09:44:48;15.80;87.40
19799;DHT22;10059;59.850;10.454;2023-02-28T09:47:27;15.80;87.20
19799;DHT22;10059;59.850;10.454;2023-02-28T09:49:56;16.20;84.70
19799;DHT22;10059;59.850;10.454;2023-02-28T09:52:28;16.40;82.20
19799;DHT22;10059;59.850;10.454;2023-02-28T09:54:58;15.40;81.60
19799;DHT22;10059;59.850;10.454;2023-02-28T09:57:32;16.10;82.80
19799;DHT22;10059;59.850;10.454;2023-02-28T10:00:07;16.40;81.40
19799;DHT22;10059;59.850;10.454;2023-02-28T10:05:47;15.50;79.30
19799;DHT22;10059;59.850;10.454;2023-02-28T10:08:18;15.50;80.00
19799;DHT22;10059;59.850;10.454;2023-02-28T10:10:49;15.60;78.00
19799;DHT22;10059;59.850;10.454;2023-02-28T10:13:24;15.40;79.50
19799;DHT22;10059;59.850;10.454;2023-02-28T10:15:53;16.00;81.40
19799;DHT22;10059;59.850;10.454;2023-02-28T10:18:24;15.70;78.30
19799;DHT22;10059;59.850;10.454;2023-02-28T10:20:53;17.30;77.10
19799;DHT22;10059;59.850;10.454;2023-02-28T10:23:24;18.60;72.70
19799;DHT22;10059;59.850;10.454;2023-02-28T10:25:55;19.20;71.30
19799;DHT22;10059;59.850;10.454;2023-02-28T10:28:25;20.50;68.90
19799;DHT22;10059;59.850;10.454;2023-02-28T10:30:53;20.60;66.80
19799;DHT22;10059;59.850;10.454;2023-02-28T10:33:25;20.80;64.00
19799;DHT22;10059;59.850;10.454;2023-02-28T10:35:52;19.70;64.50
19799;DHT22;10059;59.850;10.454;2023-02-28T10:38:21;18.40;70.90
19799;DHT22;10059;59.850;10.454;2023-02-28T10:40:48;17.20;73.60
19799;DHT22;10059;59.850;10.454;2023-02-28T10:43:21;18.40;73.60
19799;DHT22;10059;59.850;10.454;2023-02-28T10:45:59;18.50;73.60
19799;DHT22;10059;59.850;10.454;2023-02-28T10:48:34;18.80;73.10
19799;DHT22;10059;59.850;10.454;2023-02-28T10:51:03;19.50;72.20
19799;DHT22;10059;59.850;10.454;2023-02-28T10:53:37;18.60;73.60
19799;DHT22;10059;59.850;10.454;2023-02-28T10:56:05;19.30;73.20
19799;DHT22;10059;59.850;10.454;2023-02-28T10:58:47;20.50;71.00
19799;DHT22;10059;59.850;10.454;2023-02-28T11:01:16;21.50;65.80
19799;DHT22;10059;59.850;10.454;2023-02-28T11:03:44;21.50;61.20
19799;DHT22;10059;59.850;10.454;2023-02-28T11:06:16;19.10;60.60
19799;DHT22;10059;59.850;10.454;2023-02-28T11:08:48;19.30;67.30
19799;DHT22;10059;59.850;10.454;2023-02-28T11:11:16;19.00;68.90
19799;DHT22;10059;59.850;10.454;2023-02-28T11:13:45;18.70;64.70
19799;DHT22;10059;59.850;10.454;2023-02-28T11:16:14;20.10;65.30
19799;DHT22;10059;59.850;10.454;2023-02-28T11:18:46;21.00;63.90
19799;DHT22;10059;59.850;10.454;2023-02-28T11:21:21;21.90;63.60
19799;DHT22;10059;59.850;10.454;2023-02-28T11:23:51;21.80;61.90
19799;DHT22;10059;59.850;10.454;2023-02-28T11:26:38;21.80;63.50
19799;DHT22;10059;59.850;10.454;2023-02-28T11:29:18;18.70;66.20
19799;DHT22;10059;59.850;10.454;2023-02-28T11:32:11;17.10;72.30
19799;DHT22;10059;59.850;10.454;2023-02-28T11:34:40;16.60;72.90
19799;DHT22;10059;59.850;10.454;2023-02-28T11:37:12;15.60;75.90
19799;DHT22;10059;59.850;10.454;2023-02-28T11:39:39;15.50;76.60
19799;DHT22;10059;59.850;10.454;2023-02-28T11:42:29;16.10;75.30
19799;DHT22;10059;59.850;10.454;2023-02-28T11:45:14;16.50;74.20
19799;DHT22;10059;59.850;10.454;2023-02-28T11:47:47;16.50;73.50
19799;DHT22;10059;59.850;10.454;2023-02-28T11:53:24;16.20;75.10
19799;DHT22;10059;59.850;10.454;2023-02-28T11:56:01;17.60;73.80
19799;DHT22;10059;59.850;10.454;2023-02-28T11:58:41;18.20;70.20
19799;DHT22;10059;59.850;10.454;2023-02-28T12:01:28;19.50;70.30
19799;DHT22;10059;59.850;10.454;2023-02-28T12:04:14;22.00;65.40
19799;DHT22;10059;59.850;10.454;2023-02-28T12:06:50;22.80;61.30
19799;DHT22;10059;59.850;10.454;2023-02-28T12:09:34;22.30;56.00
19799;DHT22;10059;59.850;10.454;2023-02-28T12:12:15;21.70;56.30
19799;DHT22;10059;59.850;10.454;2023-02-28T12:18:19;21.10;57.60
19799;DHT22;10059;59.850;10.454;2023-02-28T12:20:53;22.80;56.60
19799;DHT22;10059;59.850;10.454;2023-02-28T12:23:46;23.00;54.90
19799;DHT22;10059;59.850;10.454;2023-02-28T12:26:22;22.10;55.10
19799;DHT22;10059;59.850;10.454;2023-02-28T12:28:57;22.50;53.90
19799;DHT22;10059;59.850;10.454;2023-02-28T12:31:29;21.90;55.90
19799;DHT22;10059;59.850;10.454;2023-02-28T12:34:03;22.10;55.00
19799;DHT22;10059;59.850;10.454;2023-02-28T12:36:30;22.20;53.40
19799;DHT22;10059;59.850;10.454;2023-02-28T12:39:01;21.60;55.10
19799;DHT22;10059;59.850;10.454;2023-02-28T12:41:33;21.70;54.80
19799;DHT22;10059;59.850;10.454;2023-02-28T12:44:03;19.90;57.50
19799;DHT22;10059;59.850;10.454;2023-02-28T12:46:35;17.70;64.10
19799;DHT22;10059;59.850;10.454;2023-02-28T12:49:06;17.70;67.40
19799;DHT22;10059;59.850;10.454;2023-02-28T12:51:35;17.00;68.40
19799;DHT22;10059;59.850;10.454;2023-02-28T12:54:13;17.40;69.20
19799;DHT22;10059;59.850;10.454;2023-02-28T12:56:45;16.70;71.20
19799;DHT22;10059;59.850;10.454;2023-02-28T12:59:21;16.00;70.30
19799;DHT22;10059;59.850;10.454;2023-02-28T13:02:02;15.60;71.70
19799;DHT22;10059;59.850;10.454;2023-02-28T13:04:57;15.40;75.70
19799;DHT22;10059;59.850;10.454;2023-02-28T13:07:52;15.00;73.50
19799;DHT22;10059;59.850;10.454;2023-02-28T13:10:38;14.60;76.00
19799;DHT22;10059;59.850;10.454;2023-02-28T13:13:05;15.20;73.10
19799;DHT22;10059;59.850;10.454;2023-02-28T13:15:32;15.30;74.60
19799;DHT22;10059;59.850;10.454;2023-02-28T13:18:03;16.20;74.20
19799;DHT22;10059;59.850;10.454;2023-02-28T13:20:34;16.30;73.80
19799;DHT22;10059;59.850;10.454;2023-02-28T13:23:01;15.90;72.90
19799;DHT22;10059;59.850;10.454;2023-02-28T13:25:53;15.70;75.50
19799;DHT22;10059;59.850;10.454;2023-02-28T13:34:49;16.40;66.90
19799;DHT22;10059;59.850;10.454;2023-02-28T13:37:35;15.90;66.80
19799;DHT22;10059;59.850;10.454;2023-02-28T13:40:29;15.30;68.60
19799;DHT22;10059;59.850;10.454;2023-02-28T13:43:08;14.30;69.50
19799;DHT22;10059;59.850;10.454;2023-02-28T13:45:35;13.40;72.80
19799;DHT22;10059;59.850;10.454;2023-02-28T13:48:05;13.10;73.70
19799;DHT22;10059;59.850;10.454;2023-02-28T13:50:42;13.00;75.00
19799;DHT22;10059;59.850;10.454;2023-02-28T13:53:45;12.60;75.80
19799;DHT22;10059;59.850;10.454;2023-02-28T13:56:25;12.10;77.20
19799;DHT22;10059;59.850;10.454;2023-02-28T13:58:58;11.90;79.00
19799;DHT22;10059;59.850;10.454;2023-02-28T14:01:43;11.90;80.10
19799;DHT22;10059;59.850;10.454;2023-02-28T14:04:44;11.60;80.50
19799;DHT22;10059;59.850;10.454;2023-02-28T14:07:18;11.50;81.20
19799;DHT22;10059;59.850;10.454;2023-02-28T14:09:50;11.40;82.30
19799;DHT22;10059;59.850;10.454;2023-02-28T14:12:59;11.30;82.70
19799;DHT22;10059;59.850;10.454;2023-02-28T14:15:43;11.40;84.30
19799;DHT22;10059;59.850;10.454;2023-02-28T14:18:17;11.50;83.40
19799;DHT22;10059;59.850;10.454;2023-02-28T14:20:46;11.40;83.40
19799;DHT22;10059;59.850;10.454;2023-02-28T14:23:21;11.30;84.50
19799;DHT22;10059;59.850;10.454;2023-02-28T14:25:58;11.20;83.60
19799;DHT22;10059;59.850;10.454;2023-02-28T14:28:44;11.00;84.70
19799;DHT22;10059;59.850;10.454;2023-02-28T14:31:16;10.70;85.30
19799;DHT22;10059;59.850;10.454;2023-02-28T14:34:03;10.80;86.10
19799;DHT22;10059;59.850;10.454;2023-02-28T14:36:34;10.60;86.00
19799;DHT22;10059;59.850;10.454;2023-02-28T14:39:06;10.20;87.80
19799;DHT22;10059;59.850;10.454;2023-02-28T14:41:34;10.10;88.70
19799;DHT22;10059;59.850;10.454;2023-02-28T14:44:13;10.10;89.40
19799;DHT22;10059;59.850;10.454;2023-02-28T14:46:43;10.00;90.10
19799;DHT22;10059;59.850;10.454;2023-02-28T14:49:16;9.90;90.30
19799;DHT22;10059;59.850;10.454;2023-02-28T14:51:44;9.70;90.80
19799;DHT22;10059;59.850;10.454;2023-02-28T14:54:14;9.50;91.00
19799;DHT22;10059;59.850;10.454;2023-02-28T14:56:42;9.50;91.20
19799;DHT22;10059;59.850;10.454;2023-02-28T14:59:24;9.50;91.50
19799;DHT22;10059;59.850;10.454;2023-02-28T15:02:14;9.50;92.10
19799;DHT22;10059;59.850;10.454;2023-02-28T15:04:41;9.30;92.60
19799;DHT22;10059;59.850;10.454;2023-02-28T15:07:09;9.40;92.40
19799;DHT22;10059;59.850;10.454;2023-02-28T15:09:36;9.30;92.50
19799;DHT22;10059;59.850;10.454;2023-02-28T15:12:03;9.20;93.40
19799;DHT22;10059;59.850;10.454;2023-02-28T15:14:31;9.20;93.10
19799;DHT22;10059;59.850;10.454;2023-02-28T15:17:01;9.20;93.60
19799;DHT22;10059;59.850;10.454;2023-02-28T15:19:31;9.30;93.80
19799;DHT22;10059;59.850;10.454;2023-02-28T15:22:02;9.40;93.80
19799;DHT22;10059;59.850;10.454;2023-02-28T15:24:36;9.40;94.10
19799;DHT22;10059;59.850;10.454;2023-02-28T15:27:05;9.40;93.80
19799;DHT22;10059;59.850;10.454;2023-02-28T15:29:41;9.30;93.90
19799;DHT22;10059;59.850;10.454;2023-02-28T15:32:24;9.40;94.40
19799;DHT22;10059;59.850;10.454;2023-02-28T15:34:51;9.30;93.70
19799;DHT22;10059;59.850;10.454;2023-02-28T15:37:27;9.40;93.60
19799;DHT22;10059;59.850;10.454;2023-02-28T15:39:57;9.20;94.50
19799;DHT22;10059;59.850;10.454;2023-02-28T15:42:28;8.90;95.80
19799;DHT22;10059;59.850;10.454;2023-02-28T15:44:55;8.60;96.60
19799;DHT22;10059;59.850;10.454;2023-02-28T15:47:25;8.50;97.10
19799;DHT22;10059;59.850;10.454;2023-02-28T15:49:54;8.30;97.40
19799;DHT22;10059;59.850;10.454;2023-02-28T15:52:29;8.50;97.20
19799;DHT22;10059;59.850;10.454;2023-02-28T15:54:59;8.50;96.60
19799;DHT22;10059;59.850;10.454;2023-02-28T15:57:33;8.40;96.50
19799;DHT22;10059;59.850;10.454;2023-02-28T16:00:02;8.60;96.50
19799;DHT22;10059;59.850;10.454;2023-02-28T16:02:33;8.60;95.70
19799;DHT22;10059;59.850;10.454;2023-02-28T16:05:17;8.50;96.00
19799;DHT22;10059;59.850;10.454;2023-02-28T16:07:46;8.40;96.10